Time;durP1;ratioP1;P1;durP2;ratioP2;P2;SDS_P1;SDS_P2;PMS_P1;PMS_P2;Temp;Humidity;BMP_temperature;BMP_pressure;BME280_temperature;BME280_humidity;BME280_pressure;Samples;Min_cycle;Max_cycle;Signal;HPM_P1;HPM_P2
2021/12/15 00:00:56;;;;;;;13.73;11.30;;;;;;;2.57;100.00;100009.03;5072655;28;20208;-65
2021/12/15 00:03:23;;;;;;;12.53;10.37;;;;;;;2.55;100.00;100011.53;5072549;28;20210;-66
2021/12/15 00:05:51;;;;;;;13.33;11.00;;;;;;;2.46;100.00;99990.34;5072421;28;20203;-67
2021/12/15 00:08:18;;;;;;;16.00;10.77;;;;;;;2.58;100.00;100013.28;5072166;28;20196;-65
2021/12/15 00:10:46;;;;;;;14.63;10.40;;;;;;;2.58;100.00;100010.75;5072511;28;20207;-66
2021/12/15 00:13:17;;;;;;;17.87;11.30;;;;;;;2.59;100.00;100013.28;5072326;28;20325;-66
2021/12/15 00:15:45;;;;;;;11.80;9.40;;;;;;;2.60;100.00;100020.06;5072214;28;20218;-66
2021/12/15 00:18:13;;;;;;;12.47;11.17;;;;;;;2.63;100.00;100019.22;5071983;28;20282;-66
2021/12/15 00:20:41;;;;;;;11.37;9.83;;;;;;;2.64;100.00;100026.00;5072229;28;20196;-65
2021/12/15 00:23:08;;;;;;;14.17;10.67;;;;;;;2.64;100.00;100026.00;5071459;28;20196;-66
2021/12/15 00:25:39;;;;;;;12.27;9.53;;;;;;;2.60;100.00;100025.13;5071973;28;20253;-66
2021/12/15 00:28:07;;;;;;;15.77;10.57;;;;;;;2.60;100.00;100031.84;5072163;28;20208;-65
2021/12/15 00:30:35;;;;;;;13.43;9.47;;;;;;;2.58;100.00;100023.41;5072144;28;20617;-66
2021/12/15 00:33:03;;;;;;;11.57;9.20;;;;;;;2.57;100.00;100034.34;5071980;28;20298;-66
2021/12/15 00:35:30;;;;;;;12.17;10.80;;;;;;;2.58;100.00;100031.00;5071816;28;20215;-66
2021/12/15 00:37:57;;;;;;;12.10;9.33;;;;;;;2.57;100.00;100035.22;5071936;28;20688;-67
2021/12/15 00:40:26;;;;;;;15.03;10.33;;;;;;;2.56;100.00;100036.03;5071839;28;20210;-65
2021/12/15 00:42:53;;;;;;;11.67;10.47;;;;;;;2.54;100.00;100034.31;5072004;28;20192;-65
2021/12/15 00:45:21;;;;;;;14.50;11.93;;;;;;;2.54;100.00;100035.16;5071686;28;20239;-66
2021/12/15 00:47:49;;;;;;;18.20;12.07;;;;;;;2.56;100.00;100037.69;5071986;28;20592;-66
2021/12/15 00:50:18;;;;;;;13.13;9.40;;;;;;;2.52;100.00;100028.41;5071780;28;20291;-66
2021/12/15 00:52:46;;;;;;;12.87;9.13;;;;;;;2.54;100.00;100029.25;5072000;28;20601;-66
2021/12/15 00:55:17;;;;;;;26.60;15.73;;;;;;;2.58;100.00;100021.72;5071805;28;20196;-66
2021/12/15 00:57:44;;;;;;;32.80;17.30;;;;;;;2.62;100.00;100028.50;5071786;28;20200;-65
2021/12/15 01:00:15;;;;;;;18.63;12.83;;;;;;;2.62;100.00;100022.59;5071776;28;20208;-66
2021/12/15 01:02:42;;;;;;;19.23;11.87;;;;;;;2.63;100.00;100029.34;5071545;28;20202;-67
2021/12/15 01:05:14;;;;;;;13.67;11.07;;;;;;;2.60;100.00;100022.59;5071695;28;20733;-66
2021/12/15 01:07:42;;;;;;;19.30;12.57;;;;;;;2.59;100.00;100018.34;5071685;28;20684;-66
2021/12/15 01:10:11;;;;;;;13.13;11.27;;;;;;;2.58;100.00;100023.41;5071747;28;20261;-66
2021/12/15 01:12:51;;;;;;;14.63;11.67;;;;;;;2.57;100.00;100019.16;5071479;28;20250;-65
2021/12/15 01:20:58;;;;;;;18.50;12.20;;;;;;;2.58;100.00;100033.53;5071798;28;20728;-66
2021/12/15 01:23:28;;;;;;;13.00;11.17;;;;;;;2.58;100.00;100031.00;5071629;28;20208;-66
2021/12/15 01:26:00;;;;;;;12.50;10.57;;;;;;;2.60;100.00;100026.78;5071547;28;20207;-66
2021/12/15 01:28:28;;;;;;;17.27;11.30;;;;;;;2.52;100.00;100010.69;5071541;28;20207;-65
2021/12/15 01:30:56;;;;;;;13.53;10.70;;;;;;;2.65;100.00;100026.00;5071360;28;20222;-65
2021/12/15 01:33:24;;;;;;;17.00;11.33;;;;;;;2.67;100.00;100026.03;5071445;28;20228;-65
2021/12/15 01:35:52;;;;;;;17.97;11.57;;;;;;;2.69;100.00;100029.44;5073762;28;20294;-65
2021/12/15 01:38:24;;;;;;;13.93;10.17;;;;;;;2.65;100.00;100022.63;5075484;28;20622;-65
2021/12/15 01:40:51;;;;;;;13.13;9.93;;;;;;;2.65;100.00;100027.69;5075342;28;20223;-65
2021/12/15 01:43:26;;;;;;;14.90;11.23;;;;;;;2.63;100.00;100025.16;5075263;28;20200;-65
2021/12/15 01:48:42;;;;;;;17.77;11.80;;;;;;;2.58;100.00;100028.47;5075828;28;20296;-65
2021/12/15 01:51:12;;;;;;;18.20;10.73;;;;;;;2.58;100.00;100020.88;5075905;28;20676;-65
2021/12/15 01:53:41;;;;;;;18.60;11.17;;;;;;;2.59;100.00;100027.63;5075088;28;20223;-65
2021/12/15 01:56:08;;;;;;;19.20;11.03;;;;;;;2.60;100.00;100026.78;5075001;28;20203;-65
2021/12/15 01:58:35;;;;;;;26.37;13.27;;;;;;;2.58;100.00;100028.47;5075248;28;20207;-65
2021/12/15 02:01:05;;;;;;;23.30;13.40;;;;;;;2.55;100.00;100026.72;5074869;28;20200;-66
2021/12/15 02:03:32;;;;;;;18.23;11.07;;;;;;;2.59;100.00;100022.56;5074867;28;20215;-66
2021/12/15 02:09:41;;;;;;;13.77;9.93;;;;;;;2.52;100.00;100016.56;5075083;28;20643;-66
2021/12/15 02:12:10;;;;;;;14.33;10.90;;;;;;;2.46;100.00;100015.66;5074936;28;20212;-65
2021/12/15 02:14:37;;;;;;;15.20;10.30;;;;;;;2.49;100.00;100016.53;5074448;28;20234;-66
2021/12/15 02:17:04;;;;;;;13.57;9.47;;;;;;;2.53;100.00;100018.28;5074622;28;20218;-65
2021/12/15 02:19:31;;;;;;;14.40;10.07;;;;;;;2.50;100.00;100013.19;5074582;28;20210;-66
2021/12/15 02:21:59;;;;;;;12.13;8.70;;;;;;;2.47;100.00;100017.34;5063526;28;20199;-67
2021/12/15 02:24:27;;;;;;;16.17;11.37;;;;;;;2.45;100.00;100003.84;5074579;28;20204;-66
2021/12/15 02:26:59;;;;;;;11.40;9.70;;;;;;;2.45;100.00;100008.91;5074479;28;20235;-66
2021/12/15 02:29:30;;;;;;;11.23;10.13;;;;;;;2.37;100.00;99990.25;5074448;28;20294;-65
2021/12/15 02:32:06;;;;;;;10.20;9.17;;;;;;;2.44;100.00;99997.94;5074293;28;20207;-65
2021/12/15 02:34:55;;;;;;;10.43;8.77;;;;;;;2.38;100.00;99994.47;5074314;28;20306;-66
2021/12/15 02:37:22;;;;;;;15.73;10.33;;;;;;;2.38;100.00;99997.00;5074177;28;20207;-66
2021/12/15 02:39:53;;;;;;;11.80;10.07;;;;;;;2.38;100.00;99991.94;5074129;28;20219;-66
2021/12/15 02:42:22;;;;;;;12.47;9.00;;;;;;;2.39;100.00;99991.94;5074303;28;20583;-66
2021/12/15 02:44:49;;;;;;;13.50;10.53;;;;;;;2.33;100.00;99993.56;5073869;28;20224;-66
2021/12/15 02:47:19;;;;;;;13.00;9.47;;;;;;;2.20;100.00;99979.09;5073149;28;20207;-66
2021/12/15 02:49:47;;;;;;;14.10;10.03;;;;;;;2.17;100.00;99981.56;5074020;28;20211;-65
2021/12/15 02:52:15;;;;;;;13.30;9.57;;;;;;;2.22;100.00;99990.06;5074042;28;20212;-65
2021/12/15 02:54:43;;;;;;;10.97;9.23;;;;;;;2.22;100.00;99987.53;5073909;28;20220;-66
2021/12/15 02:57:12;;;;;;;12.23;9.37;;;;;;;2.14;100.00;99984.91;5073848;28;20210;-66
2021/12/15 02:59:51;;;;;;;14.57;9.93;;;;;;;2.17;100.00;99981.56;5074104;28;20722;-66
2021/12/15 03:02:42;;;;;;;10.23;8.90;;;;;;;2.09;100.00;99979.78;5073917;28;20203;-65
2021/12/15 03:05:14;;;;;;;12.90;8.43;;;;;;;2.08;100.00;99975.56;5073642;28;20239;-66
2021/12/15 03:07:47;;;;;;;12.83;9.27;;;;;;;2.11;100.00;99977.28;5073731;28;20576;-66
2021/12/15 03:15:37;;;;;;;16.77;9.93;;;;;;;2.15;100.00;99973.09;5073923;28;20206;-66
2021/12/15 03:18:08;;;;;;;10.87;9.27;;;;;;;2.15;100.00;99975.63;5073483;28;20609;-66
2021/12/15 03:20:38;;;;;;;10.23;9.13;;;;;;;2.13;100.00;99980.69;5073631;28;20594;-66
2021/12/15 03:23:06;;;;;;;12.63;9.33;;;;;;;2.15;100.00;99983.22;5073289;28;20583;-66
2021/12/15 03:25:35;;;;;;;10.37;9.33;;;;;;;2.08;100.00;99962.91;5073424;28;20208;-66
2021/12/15 03:33:38;;;;;;;15.00;9.13;;;;;;;2.24;100.00;99980.81;5073319;28;20798;-66
2021/12/15 03:36:12;;;;;;;15.37;10.23;;;;;;;2.26;100.00;99991.81;5073126;28;20632;-66
2021/12/15 03:38:41;;;;;;;16.73;10.47;;;;;;;2.31;100.00;99985.09;5073186;28;20694;-66
2021/12/15 03:41:12;;;;;;;15.10;9.27;;;;;;;2.27;100.00;99975.78;5073040;28;20714;-66
2021/12/15 03:43:40;;;;;;;15.47;8.77;;;;;;;2.33;100.00;99979.22;5073114;28;20208;-66
2021/12/15 03:46:09;;;;;;;9.90;8.00;;;;;;;2.34;100.00;99990.22;5072706;28;20230;-66
2021/12/15 03:48:42;;;;;;;14.47;9.60;;;;;;;2.29;100.00;99972.47;5072913;28;20215;-66
2021/12/15 03:51:09;;;;;;;11.00;7.50;;;;;;;2.39;100.00;99988.59;5072761;28;20211;-66
2021/12/15 03:53:39;;;;;;;11.43;8.87;;;;;;;2.35;100.00;99987.72;5072755;28;20699;-66
2021/12/15 03:56:07;;;;;;;13.40;8.93;;;;;;;2.33;100.00;99988.50;5072781;28;20214;-66
2021/12/15 03:58:36;;;;;;;10.93;8.10;;;;;;;2.38;100.00;99997.00;5072414;28;20230;-66
2021/12/15 04:01:07;;;;;;;10.93;8.43;;;;;;;2.34;100.00;100000.31;5072659;28;20204;-67
2021/12/15 04:03:37;;;;;;;9.43;8.53;;;;;;;2.33;100.00;100001.16;5072547;28;20206;-66
2021/12/15 04:06:06;;;;;;;9.80;8.33;;;;;;;2.27;100.00;100004.47;5072657;28;20211;-68
2021/12/15 04:08:35;;;;;;;11.97;9.03;;;;;;;2.28;100.00;100000.25;5072390;28;20211;-67
2021/12/15 04:11:05;;;;;;;12.73;8.60;;;;;;;2.28;100.00;99995.19;5072927;28;20661;-67
2021/12/15 04:13:32;;;;;;;9.10;8.30;;;;;;;2.26;100.00;99997.72;5072245;28;20606;-68
2021/12/15 04:16:06;;;;;;;10.17;8.67;;;;;;;2.26;100.00;99997.72;5072485;28;20205;-67
2021/12/15 04:18:34;;;;;;;9.50;8.67;;;;;;;2.26;100.00;100001.94;5072256;28;20210;-67
2021/12/15 04:21:01;;;;;;;10.83;8.93;;;;;;;2.24;100.00;100014.53;5072352;28;20223;-66
2021/12/15 04:23:28;;;;;;;10.20;8.40;;;;;;;2.24;100.00;100017.06;5072147;28;20211;-66
2021/12/15 04:25:58;;;;;;;10.77;9.73;;;;;;;2.27;100.00;100011.19;5072192;28;20208;-66
2021/12/15 04:28:28;;;;;;;13.70;9.60;;;;;;;2.23;100.00;100017.88;5072066;28;20204;-66
2021/12/15 04:30:57;;;;;;;10.90;8.90;;;;;;;2.23;100.00;100015.34;5072305;28;20668;-66
2021/12/15 04:33:31;;;;;;;14.00;9.40;;;;;;;2.23;100.00;100004.41;5072084;28;20216;-66
2021/12/15 04:36:01;;;;;;;14.63;9.83;;;;;;;2.19;100.00;100005.19;5072092;28;20207;-66
2021/12/15 04:38:31;;;;;;;10.07;8.87;;;;;;;2.20;100.00;100012.78;5071957;28;20261;-67
2021/12/15 04:41:00;;;;;;;10.00;8.97;;;;;;;2.09;100.00;100002.56;5052157;28;20702;-66
2021/12/15 04:43:30;;;;;;;11.00;9.80;;;;;;;2.17;100.00;100017.81;5051965;28;20203;-66
2021/12/15 04:45:58;;;;;;;13.00;10.07;;;;;;;2.13;100.00;100010.19;5051856;28;20708;-66
2021/12/15 04:48:26;;;;;;;15.50;9.40;;;;;;;2.03;100.00;99999.94;5051949;28;20677;-66
2021/12/15 04:50:53;;;;;;;10.33;9.23;;;;;;;2.13;100.00;100010.19;5051714;28;20306;-67
2021/12/15 04:53:20;;;;;;;13.43;10.63;;;;;;;2.10;100.00;100019.41;5051761;28;20208;-66
2021/12/15 04:55:47;;;;;;;11.30;9.77;;;;;;;2.09;100.00;100015.19;5051714;28;20215;-67
2021/12/15 04:58:15;;;;;;;10.50;9.07;;;;;;;2.08;100.00;100010.97;5051884;28;20226;-67
2021/12/15 05:00:45;;;;;;;13.33;9.33;;;;;;;2.06;100.00;100020.22;5051672;28;20208;-66
2021/12/15 05:03:12;;;;;;;14.30;9.97;;;;;;;2.02;100.00;100012.56;5051840;28;20702;-66
2021/12/15 05:05:41;;;;;;;13.77;9.37;;;;;;;2.09;100.00;100025.31;5051711;28;20200;-66
2021/12/15 05:08:08;;;;;;;9.80;8.40;;;;;;;2.13;100.00;100030.41;5051648;28;20208;-66
2021/12/15 05:10:36;;;;;;;11.87;10.30;;;;;;;2.13;100.00;100027.03;5051112;28;20208;-66
2021/12/15 05:13:04;;;;;;;13.90;9.83;;;;;;;2.13;100.00;100043.06;5051502;28;20209;-66
2021/12/15 05:15:32;;;;;;;23.73;14.10;;;;;;;2.17;100.00;100037.19;5051498;28;20226;-67
2021/12/15 05:17:58;;;;;;;15.03;10.03;;;;;;;2.09;100.00;100032.03;5051472;28;20223;-68
2021/12/15 05:20:26;;;;;;;13.50;10.27;;;;;;;2.18;100.00;100043.97;5051669;28;20204;-66
2021/12/15 05:22:56;;;;;;;15.40;11.03;;;;;;;2.18;100.00;100043.97;5051462;28;20303;-66
2021/12/15 05:25:23;;;;;;;15.07;10.13;;;;;;;2.22;100.00;100043.19;5051530;28;20205;-66
2021/12/15 05:27:50;;;;;;;14.47;10.13;;;;;;;2.23;100.00;100047.41;5051445;28;20208;-66
2021/12/15 05:30:19;;;;;;;11.53;9.67;;;;;;;2.21;100.00;100051.59;5051585;28;20215;-66
2021/12/15 05:32:46;;;;;;;14.97;11.03;;;;;;;2.23;100.00;100045.72;5051407;28;20591;-66
2021/12/15 05:35:20;;;;;;;14.40;10.20;;;;;;;2.23;100.00;100047.41;5051257;28;20599;-66
2021/12/15 05:37:47;;;;;;;18.37;10.07;;;;;;;2.22;100.00;100060.88;5051498;28;20278;-66
2021/12/15 05:40:16;;;;;;;13.60;10.60;;;;;;;2.23;100.00;100067.66;5051241;28;20211;-66
2021/12/15 05:42:42;;;;;;;13.50;10.97;;;;;;;2.25;100.00;100063.44;5051379;28;20216;-66
2021/12/15 05:45:10;;;;;;;14.20;11.23;;;;;;;2.18;100.00;100069.25;5051072;28;20235;-66
2021/12/15 05:47:37;;;;;;;16.60;10.37;;;;;;;2.31;100.00;100086.31;5051453;28;20699;-66
2021/12/15 05:50:08;;;;;;;13.27;10.67;;;;;;;2.32;100.00;100088.88;5051172;28;20216;-67
2021/12/15 05:52:35;;;;;;;15.60;10.93;;;;;;;2.32;100.00;100083.81;5051374;28;20205;-67
2021/12/15 05:55:03;;;;;;;14.50;10.37;;;;;;;2.32;100.00;100088.00;5051133;28;20221;-66
2021/12/15 05:57:31;;;;;;;15.53;11.60;;;;;;;2.33;100.00;100087.16;5051249;28;20219;-66
2021/12/15 06:00:00;;;;;;;21.00;10.90;;;;;;;2.31;100.00;100087.16;5051211;28;20204;-66
2021/12/15 06:02:27;;;;;;;12.77;10.53;;;;;;;2.33;100.00;100075.38;5051113;28;20212;-66
2021/12/15 06:04:53;;;;;;;17.03;11.03;;;;;;;2.35;100.00;100083.00;5051201;28;20205;-66
2021/12/15 06:07:20;;;;;;;17.40;10.67;;;;;;;2.35;100.00;100098.16;5051023;28;20246;-66
2021/12/15 06:09:47;;;;;;;15.97;10.43;;;;;;;2.40;100.00;100101.59;5051088;28;20209;-66
2021/12/15 06:12:14;;;;;;;17.67;11.90;;;;;;;2.43;100.00;100106.69;5050979;28;20218;-66
2021/12/15 06:14:43;;;;;;;15.00;10.63;;;;;;;2.47;100.00;100113.50;5050992;28;20228;-66
2021/12/15 06:17:13;;;;;;;17.07;12.33;;;;;;;2.50;100.00;100108.50;5051037;28;20208;-66
2021/12/15 06:19:41;;;;;;;14.90;10.50;;;;;;;2.48;100.00;100120.28;5051143;28;20212;-66
2021/12/15 06:22:09;;;;;;;17.30;11.47;;;;;;;2.53;100.00;100123.72;5052168;28;20205;-67
2021/12/15 06:24:38;;;;;;;15.80;11.17;;;;;;;2.41;100.00;100095.72;5054547;28;20211;-66
2021/12/15 06:27:15;;;;;;;17.97;11.13;;;;;;;2.57;100.00;100120.41;5054446;28;20262;-67
2021/12/15 06:29:44;;;;;;;16.67;11.57;;;;;;;2.54;100.00;100121.22;5054476;28;20270;-67
2021/12/15 06:32:11;;;;;;;16.53;11.80;;;;;;;2.52;100.00;100122.03;5054410;28;20208;-67
2021/12/15 06:34:38;;;;;;;16.90;11.63;;;;;;;2.54;100.00;100116.16;5054246;28;20722;-66
2021/12/15 06:37:06;;;;;;;19.60;12.90;;;;;;;2.55;100.00;100127.13;5054404;28;20673;-67
2021/12/15 06:39:34;;;;;;;18.50;12.10;;;;;;;2.54;100.00;100125.44;5054161;28;20615;-67
2021/12/15 06:42:01;;;;;;;19.17;12.27;;;;;;;2.57;100.00;100118.72;5054058;28;20223;-66
2021/12/15 06:44:28;;;;;;;21.47;12.97;;;;;;;2.55;100.00;100117.00;5063012;28;20250;-66
2021/12/15 06:58:13;;;;;;;22.50;12.53;;;;;;;2.70;100.00;100132.38;5069624;28;20195;-57
2021/12/15 07:00:44;;;;;;;14.83;11.27;;;;;;;2.77;100.00;100138.38;5070302;28;20331;-58
2021/12/15 07:03:13;;;;;;;15.83;11.20;;;;;;;2.67;100.00;100119.69;5067231;28;20675;-57
2021/12/15 07:05:40;;;;;;;15.63;11.13;;;;;;;2.78;100.00;100140.91;5068681;28;20211;-57
2021/12/15 07:08:09;;;;;;;28.77;16.83;;;;;;;2.80;100.00;100138.41;5065268;28;20594;-58
2021/12/15 07:10:42;;;;;;;18.47;12.43;;;;;;;2.85;100.00;100140.16;5069191;28;20207;-59
2021/12/15 07:13:11;;;;;;;19.33;12.20;;;;;;;2.87;100.00;100141.06;5072680;28;20733;-69
2021/12/15 07:15:39;;;;;;;21.77;12.67;;;;;;;2.90;100.00;100143.63;5073511;28;20712;-68
2021/12/15 07:18:09;;;;;;;17.47;11.20;;;;;;;2.92;100.00;100134.34;5073372;28;20743;-70
2021/12/15 07:20:42;;;;;;;16.47;11.20;;;;;;;2.91;100.00;100140.25;5073620;28;20234;-69
2021/12/15 07:23:13;;;;;;;21.33;12.33;;;;;;;2.93;100.00;100141.13;5073261;28;20207;-66
2021/12/15 07:25:42;;;;;;;17.53;11.47;;;;;;;2.92;100.00;100138.56;5073465;28;20196;-69
2021/12/15 07:28:10;;;;;;;10.43;9.43;;;;;;;2.93;100.00;100147.88;5056123;28;20687;-69
2021/12/15 07:30:38;;;;;;;17.07;11.57;;;;;;;2.93;100.00;100148.72;5073017;28;20203;-71
2021/12/15 07:33:06;;;;;;;13.43;10.60;;;;;;;2.93;100.00;100150.41;5068235;28;20792;-70
2021/12/15 07:35:33;;;;;;;17.67;11.43;;;;;;;2.96;100.00;100143.69;5069762;28;20222;-69
2021/12/15 07:38:02;;;;;;;13.53;9.50;;;;;;;2.97;100.00;100145.38;5069129;28;20204;-70
2021/12/15 07:40:29;;;;;;;12.97;10.80;;;;;;;3.05;100.00;100140.41;5070450;28;20694;-69
2021/12/15 07:43:08;;;;;;;17.17;11.60;;;;;;;3.08;100.00;100146.38;5071124;28;20204;-69
2021/12/15 07:45:39;;;;;;;14.60;10.90;;;;;;;3.08;100.00;100146.38;5070263;28;20227;-68
2021/12/15 07:48:07;;;;;;;17.87;12.33;;;;;;;3.12;100.00;100143.06;5071052;28;20204;-69
2021/12/15 07:50:36;;;;;;;16.83;11.53;;;;;;;3.12;100.00;100148.13;5068917;28;20200;-70
2021/12/15 07:53:06;;;;;;;24.23;12.83;;;;;;;3.16;100.00;100152.41;5070105;28;20680;-70
2021/12/15 07:55:34;;;;;;;19.00;11.93;;;;;;;3.18;100.00;100153.25;5069958;28;20764;-69
2021/12/15 07:58:02;;;;;;;19.20;12.73;;;;;;;3.24;100.00;100156.66;5068165;28;20207;-69
2021/12/15 08:00:30;;;;;;;17.87;12.53;;;;;;;3.33;100.00;100172.00;5069307;28;20207;-67
2021/12/15 08:02:57;;;;;;;21.17;13.07;;;;;;;3.40;100.00;100168.66;5072746;28;20204;-67
2021/12/15 08:05:25;;;;;;;21.67;13.63;;;;;;;3.40;100.00;100163.59;5072775;28;20587;-65
2021/12/15 08:07:52;;;;;;;18.77;12.40;;;;;;;3.42;100.00;100167.03;5072929;28;20204;-66
2021/12/15 08:10:21;;;;;;;15.57;12.50;;;;;;;3.27;100.00;100147.41;5072485;28;20214;-66
2021/12/15 08:12:49;;;;;;;20.60;11.43;;;;;;;3.44;100.00;100160.28;5072653;28;20664;-66
2021/12/15 08:15:17;;;;;;;16.13;11.97;;;;;;;3.45;100.00;100159.44;5072315;28;20222;-67
2021/12/15 08:17:48;;;;;;;17.10;12.60;;;;;;;3.42;100.00;100174.63;5072247;28;20225;-67
2021/12/15 08:20:16;;;;;;;15.47;11.63;;;;;;;3.46;100.00;100178.88;5072337;28;20211;-67
2021/12/15 08:22:43;;;;;;;20.27;14.00;;;;;;;3.54;100.00;100172.22;5072286;28;20664;-67
2021/12/15 08:25:12;;;;;;;21.03;13.93;;;;;;;3.61;100.00;100176.53;5072366;28;20286;-67
2021/12/15 08:27:41;;;;;;;16.87;12.37;;;;;;;3.76;100.00;100173.28;5072205;28;20204;-66
2021/12/15 08:30:11;;;;;;;17.23;11.37;;;;;;;3.93;100.00;100180.22;5072038;28;20214;-66
2021/12/15 08:32:38;;;;;;;15.77;12.07;;;;;;;4.09;100.00;100179.50;5072122;28;20234;-66
2021/12/15 08:35:06;;;;;;;18.73;13.23;;;;;;;4.23;100.00;100182.97;5071940;28;20607;-66
2021/12/15 08:37:34;;;;;;;17.70;12.23;;;;;;;4.28;100.00;100188.09;5072034;28;20214;-66
2021/12/15 08:40:01;;;;;;;18.67;13.23;;;;;;;4.34;100.00;100179.69;5071985;28;20707;-67
2021/12/15 08:42:29;;;;;;;18.27;11.97;;;;;;;4.47;100.00;100186.56;5071997;28;20235;-66
2021/12/15 08:44:58;;;;;;;14.23;10.97;;;;;;;4.50;100.00;100191.66;5071163;28;20780;-65
2021/12/15 08:47:25;;;;;;;12.17;9.57;;;;;;;4.53;100.00;100186.59;5071844;28;20208;-65
2021/12/15 08:49:53;;;;;;;18.67;11.50;;;;;;;4.55;100.00;100193.41;5072039;28;20676;-65
2021/12/15 08:52:20;;;;;;;19.37;13.03;;;;;;;4.54;100.00;100191.69;5071898;28;20219;-67
2021/12/15 08:54:47;;;;;;;11.70;10.03;;;;;;;4.57;100.00;100188.31;5072582;28;20224;-65
2021/12/15 08:57:14;;;;;;;16.43;11.23;;;;;;;4.59;100.00;100196.78;5071642;28;20188;-66
2021/12/15 08:59:41;;;;;;;24.90;13.43;;;;;;;4.59;100.00;100199.31;5071963;28;20203;-66
2021/12/15 09:05:31;;;;;;;13.67;10.57;;;;;;;4.65;100.00;100196.84;5072050;28;20646;-66
2021/12/15 09:08:00;;;;;;;15.17;12.13;;;;;;;4.75;100.00;100196.03;5071862;28;20200;-66
2021/12/15 09:10:32;;;;;;;15.60;11.63;;;;;;;4.78;100.00;100198.63;5071577;28;20206;-67
2021/12/15 09:12:59;;;;;;;21.87;12.17;;;;;;;4.85;100.00;100205.41;5071675;28;20208;-66
2021/12/15 09:15:27;;;;;;;21.50;12.67;;;;;;;4.93;100.00;100205.47;5071651;28;20599;-67
2021/12/15 09:17:55;;;;;;;15.07;11.20;;;;;;;4.99;100.00;100193.63;5071542;28;20726;-66
2021/12/15 09:20:26;;;;;;;16.83;10.50;;;;;;;4.96;100.00;100187.69;5071718;28;20701;-66
2021/12/15 09:22:56;;;;;;;12.53;10.93;;;;;;;5.00;100.00;100190.28;5071555;28;20207;-66
2021/12/15 09:25:23;;;;;;;11.63;10.43;;;;;;;5.06;100.00;100190.28;5071680;28;20702;-65
2021/12/15 09:27:50;;;;;;;18.90;11.80;;;;;;;5.11;100.00;100186.06;5071386;28;20249;-66
2021/12/15 09:30:23;;;;;;;26.03;13.30;;;;;;;5.17;100.00;100186.09;5071535;28;20208;-66
2021/12/15 09:32:50;;;;;;;13.93;10.63;;;;;;;5.19;100.00;100181.88;5071430;28;20207;-65
2021/12/15 09:35:19;;;;;;;13.40;10.57;;;;;;;5.19;100.00;100189.50;5071395;28;20219;-65
2021/12/15 09:37:47;;;;;;;14.73;10.30;;;;;;;5.24;100.00;100180.19;5071354;28;20583;-66
2021/12/15 09:40:17;;;;;;;14.63;10.93;;;;;;;5.24;100.00;100184.41;5071353;28;20199;-66
2021/12/15 09:42:44;;;;;;;14.87;9.93;;;;;;;5.22;100.00;100186.97;5071366;28;20203;-65
2021/12/15 09:45:33;;;;;;;14.90;10.93;;;;;;;5.26;100.00;100183.59;5071108;28;20251;-66
2021/12/15 09:56:22;;;;;;;12.80;9.10;;;;;;;5.24;100.00;100175.09;5071278;28;20208;-66
2021/12/15 09:57:14;;;;;;;12.93;10.53;;;;;;;5.31;100.00;100188.69;5073175;28;20306;-65
2021/12/15 10:02:39;;;;;;;12.70;10.10;;;;;;;5.30;100.00;100184.44;5075117;28;20215;-66
2021/12/15 10:05:19;;;;;;;14.63;10.73;;;;;;;5.31;100.00;100186.16;5074727;28;20203;-65
2021/12/15 10:19:18;;;;;;;16.63;11.73;;;;;;;5.26;100.00;100186.16;5074674;28;20638;-66
2021/12/15 10:21:57;;;;;;;10.93;9.67;;;;;;;5.36;100.00;100186.19;5074644;28;20196;-67
2021/12/15 10:24:29;;;;;;;10.30;9.20;;;;;;;5.37;100.00;100181.06;5074527;28;20206;-67
2021/12/15 10:26:58;;;;;;;14.10;9.77;;;;;;;5.42;100.00;100181.09;5074561;28;20207;-68
2021/12/15 10:29:26;;;;;;;12.47;9.93;;;;;;;5.42;100.00;100178.56;5074417;28;20208;-67
2021/12/15 10:32:02;;;;;;;10.97;9.50;;;;;;;5.49;100.00;100193.00;5074493;28;20582;-67
2021/12/15 10:34:29;;;;;;;11.87;10.67;;;;;;;5.51;100.00;100193.84;5074232;28;20587;-67
2021/12/15 10:36:57;;;;;;;13.03;10.70;;;;;;;5.49;100.00;100177.75;5074409;28;20653;-67
2021/12/15 10:39:25;;;;;;;14.10;10.00;;;;;;;5.57;100.00;100186.22;5074276;28;20204;-68
2021/12/15 10:41:54;;;;;;;9.80;8.90;;;;;;;5.59;100.00;100182.84;5074290;28;20419;-66
2021/12/15 10:44:24;;;;;;;34.77;17.63;;;;;;;5.60;100.00;100187.09;5074015;28;20235;-66
2021/12/15 10:46:55;;;;;;;17.33;10.33;;;;;;;5.61;100.00;100191.34;5074355;28;20671;-67
2021/12/15 10:49:26;;;;;;;18.43;11.37;;;;;;;5.65;100.00;100187.97;5074138;28;20607;-66
2021/12/15 10:51:57;;;;;;;51.43;24.47;;;;;;;5.61;100.00;100176.06;5074135;28;20215;-66
2021/12/15 10:54:27;;;;;;;12.40;9.70;;;;;;;5.68;100.00;100187.09;5073968;28;20196;-67
2021/12/15 10:56:56;;;;;;;9.43;8.57;;;;;;;5.73;100.00;100190.50;5073938;28;20251;-66
2021/12/15 10:59:25;;;;;;;9.63;8.73;;;;;;;5.68;100.00;100187.09;5073947;28;20211;-66
2021/12/15 11:01:57;;;;;;;12.03;9.60;;;;;;;5.73;100.00;100187.97;5074068;28;20212;-67
2021/12/15 11:04:44;;;;;;;8.30;7.37;;;;;;;5.68;100.00;100187.97;5073935;28;20210;-66
2021/12/15 11:07:30;;;;;;;11.97;10.67;;;;;;;5.72;100.00;100189.66;5070140;28;20423;-71
2021/12/15 11:10:00;;;;;;;9.50;8.43;;;;;;;5.78;100.00;100191.38;5069515;28;20273;-71
2021/12/15 11:12:31;;;;;;;12.20;10.00;;;;;;;5.77;100.00;100192.22;5069914;28;20199;-72
2021/12/15 11:15:00;;;;;;;9.77;8.63;;;;;;;5.72;100.00;100189.66;5069901;28;20199;-71
2021/12/15 11:17:30;;;;;;;10.30;9.13;;;;;;;5.78;100.00;100193.91;5069166;28;20203;-71
2021/12/15 11:20:01;;;;;;;8.87;7.97;;;;;;;5.71;100.00;100189.66;5069020;28;20200;-71
2021/12/15 11:22:37;;;;;;;9.83;8.83;;;;;;;5.73;100.00;100190.50;5069949;28;20204;-71
2021/12/15 11:25:08;;;;;;;9.43;8.53;;;;;;;5.69;100.00;100191.34;5069020;28;20204;-71
2021/12/15 11:27:35;;;;;;;13.80;11.07;;;;;;;5.67;100.00;100196.44;5069877;28;20553;-71
2021/12/15 11:30:02;;;;;;;8.73;7.93;;;;;;;5.64;100.00;100195.56;5069463;28;20207;-72
2021/12/15 11:32:50;;;;;;;10.63;9.33;;;;;;;5.61;100.00;100193.03;5070943;28;20215;-72
2021/12/15 11:35:20;;;;;;;9.87;8.83;;;;;;;5.63;100.00;100183.69;5065725;28;20208;-71
2021/12/15 11:37:52;;;;;;;10.00;9.10;;;;;;;5.57;100.00;100173.50;5068978;28;20237;-71
2021/12/15 11:40:25;;;;;;;12.30;9.13;;;;;;;5.60;100.00;100189.63;5069400;28;20210;-71
2021/12/15 11:42:52;;;;;;;9.90;8.43;;;;;;;5.63;100.00;100188.78;5068724;28;20583;-72
2021/12/15 11:45:19;;;;;;;12.47;9.47;;;;;;;5.55;100.00;100186.25;5066951;28;20239;-71
2021/12/15 11:47:48;;;;;;;13.80;9.70;;;;;;;5.53;100.00;100192.13;5068643;28;20627;-71
2021/12/15 11:50:17;;;;;;;14.73;10.43;;;;;;;5.58;100.00;100195.56;5069191;28;20210;-71
2021/12/15 11:52:47;;;;;;;14.83;9.63;;;;;;;5.55;100.00;100193.00;5068247;28;20208;-72
2021/12/15 11:55:25;;;;;;;13.00;9.67;;;;;;;5.57;100.00;100193.84;5068873;28;20207;-71
2021/12/15 11:57:52;;;;;;;11.23;8.60;;;;;;;5.56;100.00;100193.00;5068985;28;20199;-72
2021/12/15 12:00:22;;;;;;;14.97;10.03;;;;;;;5.57;100.00;100193.84;5069161;28;20204;-72
2021/12/15 12:02:54;;;;;;;13.77;10.23;;;;;;;5.56;100.00;100195.53;5072018;28;20200;-71
2021/12/15 12:05:24;;;;;;;10.93;9.80;;;;;;;5.51;100.00;100188.75;5071432;28;20223;-71
2021/12/15 12:07:54;;;;;;;15.47;10.73;;;;;;;5.48;100.00;100192.16;5071431;28;20204;-71
2021/12/15 12:10:27;;;;;;;10.40;9.03;;;;;;;5.47;100.00;100189.59;5071710;28;20196;-71
2021/12/15 12:13:02;;;;;;;10.70;9.50;;;;;;;5.48;100.00;100189.59;5071584;28;20202;-71
2021/12/15 12:15:30;;;;;;;15.90;12.47;;;;;;;5.50;100.00;100190.44;5071073;28;20202;-71
2021/12/15 12:18:02;;;;;;;10.40;9.30;;;;;;;5.44;100.00;100192.97;5070869;28;20237;-71
2021/12/15 12:20:31;;;;;;;26.57;13.93;;;;;;;5.41;100.00;100187.88;5070550;28;20760;-71
2021/12/15 12:23:00;;;;;;;18.17;12.93;;;;;;;5.33;100.00;100181.94;5070915;28;20654;-71